Aeroporto :
LOGIN :

Iscrizione | Disclaimer

   EN    FR    IT 

 










Sommario :    VFR   VFR Marginale   IFR   IFR Intensivo   IFR Molto Intensivo
Visibilità : 
Base nubi : 
>= 8 km
>= 3000ft
5 / 8 km
1000 / 3000 ft
1500m / 5 km
500 / 1000 ft
800 / 1500m
200 / 500 ft
< 800m
< 200 ft
Simboli :   Temporali  Nebbia  Neve Forte  Precipitazioni Forti  Vento > 20 kt
SIGMETs :   Varie  Temporali  Ghiacco  Turbolenza  Onda orograficha  Ceneri Vulcaniche






- Altitudine del aeroporto : 19 ft
- Codice IATA : DJE


DTTJ - Djerba Zarzis

ULTIMO METAR :
  • 021200Z 04011KT 010V070 8000 FEW020 24/15 Q1015 NOSIG

METARs OBSOLETI :
  • 021130Z 04012KT 8000 FEW020 24/15 Q1015 NOSIG
  • 021100Z 04012KT 010V080 8000 FEW020 24/12 Q1015 NOSIG
  • 021030Z 04010KT 360V080 8000 FEW020 24/15 Q1015 NOSIG
  • 021000Z 04011KT 010V080 8000 FEW020 24/15 Q1015 NOSIG
  • 020930Z 04008KT 350V100 8000 FEW020 24/15 Q1015 NOSIG

TAF TAF DTTJ
Valido dal 02 a 12 ore il 03 a 12 ore UTC


021100Z 0212/0312 04012KT 8000 FEW020
BECMG 0217/0219 11010KT
BECMG 0223/0301 14003KT
BECMG 0306/0308 10010KT



MetMap, La meteo Aeronautica in un colpo d'occhio ! - Copyright ORBIFLY Dicembre 2007 - Disclaimer

ORBIFLY MET'MAP TEAM :

Programmazione e sviluppo : Alexandra Zaïnal
Concezione : Baudouin d'Aumeries
Aiuto per la programmazione : Marc-Olivier Méhu
Supporto tecnico e logistico : Manuel Goepfert
Aiuto per la traduzione : Arnaldo La Scala

Contatto : metmap@orbifly.com




FONTI E CREDITI :

   NOAA